»·PEaware :: N55335 KSBP-KLGB

N55335 :: KSBP-KLGB

FLIGHT INFORMATION

Flight Status: Arrived
Operator: Privately registered:
United States
More flights under this callsign
Pilot: John N. (18861)
Aircraft: CIRRUS VISIONJET
(SF50)
More flights by this aircraft type
Origin: KSBP San Luis Co Regl
United States
Destination: KLGB Long Beach
United States
More flights between these airports :: More routes between these airports
Route: RZS VTU V208 SXC SLI
File this flight plan on PilotEdge
Remarks: SBAP43
Altitude:
(Current/Filed)
11,000ft
Speed:
(Current/Filed)
240kts
Departed: 01-Sep-21 06:51 PM
Arrived: 01-Sep-21 07:47 PM
Distance/Time
Traveled:
150nm/0:55
Distance/Time
To Go:
Arrived

Flight Plot

Page will automatically refresh every two minutes.


Map Options




Map Legend


Flown Route
Filed Route
Departure Airport
Arrival Airport
Navaid (VOR, NDB)
Fix

Horizontal Profiles

Position Reports

Time Latitude Longitude Heading Altitude Ground
Speed
01-Sep-21 18:33 35.238392 -120.640372 103 216ft 0kts
01-Sep-21 18:34 35.238392 -120.640372 103 216ft 0kts
01-Sep-21 18:35 35.238392 -120.640372 103 216ft 0kts
01-Sep-21 18:36 35.238392 -120.640372 103 216ft 0kts
01-Sep-21 18:37 35.238392 -120.640372 103 216ft 0kts
01-Sep-21 18:38 35.238392 -120.640372 103 216ft 0kts
01-Sep-21 18:39 35.238392 -120.640372 103 216ft 0kts
01-Sep-21 18:40 35.237845 -120.639660 145 216ft 20kts
01-Sep-21 18:41 35.233594 -120.632522 122 216ft 14kts
01-Sep-21 18:42 35.233193 -120.632034 189 216ft 0kts
01-Sep-21 18:43 35.233113 -120.632050 189 216ft 0kts
01-Sep-21 18:44 35.233033 -120.632066 189 216ft 0kts
01-Sep-21 18:45 35.232954 -120.632083 189 216ft 0kts
01-Sep-21 18:46 35.232947 -120.631874 29 216ft 8kts
01-Sep-21 18:47 35.233205 -120.631974 311 216ft 0kts
01-Sep-21 18:48 35.233205 -120.631974 311 216ft 0kts
01-Sep-21 18:49 35.233205 -120.631974 311 216ft 0kts
01-Sep-21 18:50 35.234704 -120.636303 303 216ft 82kts
01-Sep-21 18:51 35.254410 -120.674115 300 2260ft 147kts
01-Sep-21 18:52 35.275844 -120.716932 300 4690ft 151kts
01-Sep-21 18:53 35.282447 -120.770355 214 4984ft 212kts
01-Sep-21 18:54 35.228999 -120.736442 140 6572ft 246kts
01-Sep-21 18:55 35.179688 -120.675157 132 7837ft 272kts
01-Sep-21 18:56 35.129132 -120.605728 133 9188ft 273kts
01-Sep-21 18:57 35.078723 -120.537036 134 10598ft 270kts
01-Sep-21 18:58 35.027837 -120.467859 134 10846ft 278kts
01-Sep-21 18:59 34.975847 -120.397308 133 10846ft 282kts
01-Sep-21 19:00 34.923225 -120.326048 134 10843ft 283kts
01-Sep-21 19:01 34.870434 -120.254704 133 10843ft 283kts
01-Sep-21 19:02 34.817937 -120.183902 133 10983ft 279kts
01-Sep-21 19:03 34.765716 -120.113625 134 11017ft 281kts
01-Sep-21 19:04 34.713053 -120.042894 134 11018ft 282kts
01-Sep-21 19:05 34.660453 -119.972024 133 11008ft 283kts
01-Sep-21 19:06 34.608577 -119.899621 132 11002ft 283kts
01-Sep-21 19:07 34.558064 -119.826136 130 10997ft 283kts
01-Sep-21 19:08 34.507344 -119.753226 139 11003ft 281kts
01-Sep-21 19:09 34.459320 -119.677888 125 11001ft 284kts
01-Sep-21 19:10 34.415794 -119.598104 124 11001ft 284kts
01-Sep-21 19:11 34.372231 -119.518103 124 11001ft 284kts
01-Sep-21 19:12 34.328716 -119.438361 124 11001ft 284kts
01-Sep-21 19:13 34.284922 -119.358285 124 11002ft 285kts
01-Sep-21 19:14 34.241181 -119.278489 125 10999ft 284kts
01-Sep-21 19:15 34.197446 -119.198876 125 10997ft 284kts
01-Sep-21 19:16 34.153634 -119.119302 125 10999ft 284kts
01-Sep-21 19:17 34.100907 -119.052898 166 11002ft 275kts
01-Sep-21 19:18 34.039885 -119.041792 177 11008ft 273kts
01-Sep-21 19:19 33.962933 -119.033474 177 11007ft 283kts
01-Sep-21 19:20 33.883458 -119.025138 177 11046ft 287kts
01-Sep-21 19:21 33.804164 -119.015050 162 11085ft 293kts
01-Sep-21 19:22 33.744270 -118.947784 131 11094ft 301kts
01-Sep-21 19:23 33.691369 -118.871927 131 11011ft 280kts
01-Sep-21 19:24 33.644938 -118.805224 131 11021ft 247kts
01-Sep-21 19:25 33.600859 -118.742010 131 11035ft 247kts
01-Sep-21 19:26 33.556645 -118.678700 131 11037ft 248kts
01-Sep-21 19:27 33.512409 -118.615475 131 11038ft 248kts
01-Sep-21 19:29 33.467954 -118.552059 131 11038ft 248kts
01-Sep-21 19:30 33.423948 -118.489373 131 11037ft 239kts
01-Sep-21 19:31 33.389390 -118.425894 78 11041ft 228kts
01-Sep-21 19:32 33.421064 -118.364716 60 11066ft 220kts
01-Sep-21 19:33 33.447096 -118.298463 61 11064ft 221kts
01-Sep-21 19:34 33.473850 -118.230697 61 10761ft 234kts
01-Sep-21 19:35 33.503426 -118.158008 61 9361ft 246kts
01-Sep-21 19:36 33.534111 -118.085269 61 7963ft 244kts
01-Sep-21 19:37 33.565718 -118.016463 40 6950ft 230kts
01-Sep-21 19:38 33.609825 -117.980384 24 6072ft 210kts
01-Sep-21 19:39 33.656194 -117.989571 338 4780ft 167kts
01-Sep-21 19:40 33.698046 -118.008316 318 3184ft 138kts
01-Sep-21 19:41 33.724082 -118.035463 309 2658ft 121kts
01-Sep-21 19:42 33.746017 -118.064121 314 2154ft 116kts
01-Sep-21 19:43 33.768314 -118.090413 308 1533ft 94kts
01-Sep-21 19:44 33.785663 -118.112138 307 1004ft 86kts
01-Sep-21 19:45 33.802621 -118.132992 309 318ft 86kts
01-Sep-21 19:46 33.816543 -118.149944 319 42ft 43kts
01-Sep-21 19:47 33.818553 -118.153399 274 47ft 0kts
01-Sep-21 19:48 33.820023 -118.155970 321 50ft 20kts
01-Sep-21 19:49 33.819677 -118.157314 179 50ft 14kts
01-Sep-21 19:50 33.814915 -118.156403 98 49ft 17kts
01-Sep-21 19:51 33.814954 -118.152176 83 43ft 3kts
01-Sep-21 19:52 33.814600 -118.151369 140 42ft 9kts

Navigation Log

Ident Type
Flight plan parsing failed, navigation log unavailable